Time;durP1;ratioP1;P1;durP2;ratioP2;P2;SDS_P1;SDS_P2;PMS_P1;PMS_P2;Temp;Humidity;BMP_temperature;BMP_pressure;BME280_temperature;BME280_humidity;BME280_pressure;Samples;Min_cycle;Max_cycle;Signal;HPM_P1;HPM_P2
2022/06/13 00:01:27;;;;;;;;;;;;;;;23.77;30.94;99864.44;5094002;28;19916;-71
2022/06/13 00:03:52;;;;;;;;;;;;;;;23.76;31.05;99852.69;5094386;28;19916;-71
2022/06/13 00:06:17;;;;;;;;;;;;;;;23.75;31.09;99848.34;5094212;28;19922;-71
2022/06/13 00:08:43;;;;;;;;;;;;;;;23.75;31.06;99851.06;5094112;28;20298;-71
2022/06/13 00:11:16;;;;;;;;;;;;;;;23.77;31.11;99846.13;5093861;28;19920;-71
2022/06/13 00:13:42;;;;;;;;;;;;;;;23.76;31.07;99849.97;5094273;28;19916;-71
2022/06/13 00:16:08;;;;;;;;;;;;;;;23.75;31.13;99837.44;5094193;28;19916;-71
2022/06/13 00:18:33;;;;;;;;;;;;;;;23.76;31.06;99843.69;5093913;28;20268;-71
2022/06/13 00:20:58;;;;;;;;;;;;;;;23.76;31.16;99847.22;5094057;28;19924;-71
2022/06/13 00:23:24;;;;;;;;;;;;;;;23.76;31.09;99854.63;5093440;28;19923;-71
2022/06/13 00:25:49;;;;;;;;;;;;;;;23.76;31.25;99849.97;5076624;28;19920;-72
2022/06/13 00:28:14;;;;;;;;;;;;;;;23.76;31.12;99843.69;5097862;28;19960;-71
2022/06/13 00:30:39;;;;;;;;;;;;;;;23.76;31.15;99841.78;5097830;28;19923;-71
2022/06/13 00:33:05;;;;;;;;;;;;;;;23.77;31.16;99845.34;5097777;28;20329;-71
2022/06/13 00:35:30;;;;;;;;;;;;;;;23.76;31.16;99849.97;5097557;28;19931;-71
2022/06/13 00:37:55;;;;;;;;;;;;;;;23.75;31.21;99848.34;5097669;28;20248;-71
2022/06/13 00:40:22;;;;;;;;;;;;;;;23.73;31.26;99839.66;5097460;28;19916;-71
2022/06/13 00:42:47;;;;;;;;;;;;;;;23.74;31.15;99852.16;5097372;28;19950;-71
2022/06/13 00:45:12;;;;;;;;;;;;;;;23.74;31.22;99846.72;5097099;28;19923;-71
2022/06/13 00:47:38;;;;;;;;;;;;;;;23.75;31.35;99848.34;5097288;28;19916;-71
2022/06/13 00:50:04;;;;;;;;;;;;;;;23.76;31.41;99844.50;5097115;28;19962;-71
2022/06/13 00:52:40;;;;;;;;;;;;;;;23.76;31.24;99847.22;5097311;28;19916;-71
2022/06/13 00:55:05;;;;;;;;;;;;;;;23.76;31.28;99840.97;5097226;28;20010;-72
2022/06/13 00:57:31;;;;;;;;;;;;;;;23.74;31.36;99838.53;5079347;28;19954;-71
2022/06/13 00:59:56;;;;;;;;;;;;;;;23.75;31.44;99833.88;5078889;28;19916;-71
2022/06/13 01:02:22;;;;;;;;;;;;;;;23.75;31.51;99826.53;5096638;28;19923;-71
2022/06/13 01:04:48;;;;;;;;;;;;;;;23.74;31.69;99835.78;5096696;28;19916;-71
2022/06/13 01:07:13;;;;;;;;;;;;;;;23.75;31.33;99829.25;5078930;28;19920;-71
2022/06/13 01:12:22;;;;;;;;;;;;;;;23.73;31.67;99834.19;5097103;28;20377;-71
2022/06/13 01:14:55;;;;;;;;;;;;;;;23.73;31.44;99828.72;5096651;28;19916;-71
2022/06/13 01:17:35;;;;;;;;;;;;;;;23.73;31.57;99827.91;5078422;28;20416;-71
2022/06/13 01:20:03;;;;;;;;;;;;;;;23.72;31.63;99829.81;5096546;28;19916;-70
2022/06/13 01:22:47;;;;;;;;;;;;;;;23.74;31.65;99830.34;5096378;28;19920;-70
2022/06/13 01:25:12;;;;;;;;;;;;;;;23.73;31.80;99823.28;5096036;28;19916;-70
2022/06/13 01:27:45;;;;;;;;;;;;;;;23.73;31.93;99817.81;5076324;28;20279;-71
2022/06/13 01:30:22;;;;;;;;;;;;;;;23.73;31.74;99817.81;5058258;28;19921;-71
2022/06/13 01:32:52;;;;;;;;;;;;;;;23.73;31.85;99817.00;5076092;28;19923;-71
2022/06/13 01:35:17;;;;;;;;;;;;;;;23.73;32.11;99812.38;5058572;28;19928;-71
2022/06/13 01:38:01;;;;;;;;;;;;;;;23.73;31.91;99809.63;5074718;28;19951;-72
2022/06/13 01:40:29;;;;;;;;;;;;;;;23.73;32.18;99809.63;5076158;28;19917;-72
2022/06/13 01:43:13;;;;;;;;;;;;;;;23.73;32.04;99809.63;5075749;28;20019;-71
2022/06/13 01:45:38;;;;;;;;;;;;;;;23.72;32.12;99808.00;5076046;28;19916;-71
2022/06/13 01:48:09;;;;;;;;;;;;;;;23.72;32.20;99810.72;5075402;28;20010;-71
2022/06/13 01:50:42;;;;;;;;;;;;;;;23.73;32.28;99806.91;5076499;28;19916;-71
2022/06/13 01:53:19;;;;;;;;;;;;;;;23.73;32.22;99808.81;5057990;28;19924;-71
2022/06/13 01:55:48;;;;;;;;;;;;;;;23.73;32.42;99797.91;5075852;28;19923;-71
2022/06/13 01:58:29;;;;;;;;;;;;;;;23.72;32.40;99805.28;5075484;28;19923;-70
2022/06/13 02:00:58;;;;;;;;;;;;;;;23.73;32.48;99806.91;5075626;28;20319;-72
2022/06/13 02:03:28;;;;;;;;;;;;;;;23.73;32.47;99806.91;5075603;28;19917;-72
2022/06/13 02:06:19;;;;;;;;;;;;;;;23.72;32.58;99808.00;5075368;28;19924;-72
2022/06/13 02:08:50;;;;;;;;;;;;;;;23.73;32.63;99801.44;5072203;28;19972;-72
2022/06/13 02:11:15;;;;;;;;;;;;;;;23.73;32.67;99801.44;5076018;28;19943;-72
2022/06/13 02:13:43;;;;;;;;;;;;;;;23.73;32.55;99800.63;5075478;28;20362;-72
2022/06/13 02:16:10;;;;;;;;;;;;;;;23.73;32.55;99800.63;5075519;28;19917;-72
2022/06/13 02:18:39;;;;;;;;;;;;;;;23.73;32.65;99795.16;5057347;28;19917;-72
2022/06/13 02:21:06;;;;;;;;;;;;;;;23.73;32.87;99796.00;5057616;28;19916;-72
2022/06/13 02:23:33;;;;;;;;;;;;;;;23.74;32.74;99792.16;5057240;28;19927;-72
2022/06/13 02:26:08;;;;;;;;;;;;;;;23.73;32.79;99790.53;5061615;28;19928;-71
2022/06/13 02:28:39;;;;;;;;;;;;;;;23.72;32.88;99783.44;5095241;28;20432;-71
2022/06/13 02:31:09;;;;;;;;;;;;;;;23.72;33.02;99778.00;5076917;28;19916;-71
2022/06/13 02:33:35;;;;;;;;;;;;;;;23.73;33.10;99782.34;5077199;28;19939;-71
2022/06/13 02:36:02;;;;;;;;;;;;;;;23.73;32.81;99773.34;5077037;28;19916;-71
2022/06/13 02:38:35;;;;;;;;;;;;;;;23.72;32.93;99771.72;5076914;28;20284;-71
2022/06/13 02:41:03;;;;;;;;;;;;;;;23.72;33.08;99769.81;5077172;28;19912;-71
2022/06/13 02:43:30;;;;;;;;;;;;;;;23.73;33.22;99773.34;5077135;28;19916;-72
2022/06/13 02:45:59;;;;;;;;;;;;;;;23.73;33.27;99776.91;5076816;28;19917;-71
2022/06/13 02:48:31;;;;;;;;;;;;;;;23.72;33.24;99778.00;5094665;28;19948;-71
2022/06/13 02:50:59;;;;;;;;;;;;;;;23.72;33.45;99766.28;5076829;28;19955;-71
2022/06/13 02:53:36;;;;;;;;;;;;;;;23.73;33.49;99773.34;5095046;28;20026;-71
2022/06/13 02:56:01;;;;;;;;;;;;;;;23.73;33.43;99765.16;5094647;28;19942;-71
2022/06/13 02:58:34;;;;;;;;;;;;;;;23.72;33.52;99767.09;5094643;28;20010;-71
2022/06/13 03:01:03;;;;;;;;;;;;;;;23.72;33.73;99764.34;5076753;28;19916;-71
2022/06/13 03:03:43;;;;;;;;;;;;;;;23.73;33.54;99763.25;5076328;28;20423;-71
2022/06/13 03:06:11;;;;;;;;;;;;;;;23.76;33.64;99768.13;5094374;28;20366;-72
2022/06/13 03:08:39;;;;;;;;;;;;;;;23.80;33.67;99768.34;5094767;28;19916;-72
2022/06/13 03:11:23;;;;;;;;;;;;;;;23.82;33.61;99766.19;5076584;28;19917;-72
2022/06/13 03:13:54;;;;;;;;;;;;;;;23.85;33.65;99753.88;5094507;28;20069;-72
2022/06/13 03:16:28;;;;;;;;;;;;;;;23.88;33.79;99767.75;5094455;28;19924;-72
2022/06/13 03:18:55;;;;;;;;;;;;;;;23.92;33.67;99760.59;5094711;28;19923;-72
2022/06/13 03:21:23;;;;;;;;;;;;;;;23.95;33.81;99764.66;5076295;28;20294;-72
2022/06/13 03:23:50;;;;;;;;;;;;;;;23.99;33.65;99758.34;5075936;28;19917;-72
2022/06/13 03:26:16;;;;;;;;;;;;;;;24.03;33.86;99755.03;5094279;28;20023;-72
2022/06/13 03:28:41;;;;;;;;;;;;;;;24.06;33.71;99757.97;5076337;28;19920;-72
2022/06/13 03:31:07;;;;;;;;;;;;;;;24.09;33.99;99762.81;5094527;28;19923;-72
2022/06/13 03:33:40;;;;;;;;;;;;;;;24.12;34.05;99767.72;5094468;28;19920;-72
2022/06/13 03:36:08;;;;;;;;;;;;;;;24.14;34.20;99760.03;5094432;28;20053;-72
2022/06/13 03:38:35;;;;;;;;;;;;;;;24.18;33.99;99763.81;5093956;28;20282;-72
2022/06/13 03:41:00;;;;;;;;;;;;;;;24.22;34.17;99763.22;5094124;28;19955;-72
2022/06/13 03:43:29;;;;;;;;;;;;;;;24.23;34.28;99760.19;5076339;28;19964;-72
2022/06/13 03:45:55;;;;;;;;;;;;;;;24.23;34.42;99767.56;5093974;28;20374;-72
2022/06/13 03:48:35;;;;;;;;;;;;;;;24.27;34.25;99763.97;5075999;28;19923;-72
2022/06/13 03:51:12;;;;;;;;;;;;;;;24.29;34.26;99761.75;5075578;28;19916;-72
2022/06/13 03:53:40;;;;;;;;;;;;;;;24.31;34.41;99758.72;5075894;28;19916;-72
2022/06/13 03:56:19;;;;;;;;;;;;;;;24.33;34.51;99756.50;5093942;28;19999;-72
2022/06/13 03:59:08;;;;;;;;;;;;;;;24.31;34.55;99762.25;5075447;28;19916;-72
2022/06/13 04:01:42;;;;;;;;;;;;;;;24.35;34.45;99749.66;5084445;28;19920;-72
2022/06/13 04:04:10;;;;;;;;;;;;;;;24.38;34.65;99759.16;5093520;28;19917;-72
2022/06/13 04:06:39;;;;;;;;;;;;;;;24.38;34.50;99749.03;5075491;28;19960;-72
2022/06/13 04:09:06;;;;;;;;;;;;;;;24.41;34.37;99753.13;5075592;28;19923;-72
2022/06/13 04:11:50;;;;;;;;;;;;;;;24.43;34.62;99750.91;5093469;28;19955;-72
2022/06/13 04:14:15;;;;;;;;;;;;;;;24.46;34.65;99749.50;5075615;28;20358;-72
2022/06/13 04:16:50;;;;;;;;;;;;;;;24.46;34.66;99746.78;5093678;28;19979;-72
2022/06/13 04:19:34;;;;;;;;;;;;;;;24.44;34.84;99743.50;5093359;28;20321;-73
2022/06/13 04:22:20;;;;;;;;;;;;;;;24.50;34.80;99748.59;5075531;28;19944;-72
2022/06/13 04:24:50;;;;;;;;;;;;;;;24.55;34.67;99751.28;5093946;28;20002;-72
2022/06/13 04:27:15;;;;;;;;;;;;;;;24.57;34.71;99747.47;5093077;28;19955;-72
2022/06/13 04:29:49;;;;;;;;;;;;;;;24.56;34.95;99746.66;5093369;28;19916;-73
2022/06/13 04:32:15;;;;;;;;;;;;;;;24.59;34.79;99737.84;5076634;28;19920;-72
2022/06/13 04:34:48;;;;;;;;;;;;;;;24.62;34.78;99734.53;5076223;28;19924;-72
2022/06/13 04:37:13;;;;;;;;;;;;;;;24.63;34.48;99738.06;5076680;28;19924;-72
2022/06/13 04:39:39;;;;;;;;;;;;;;;24.63;34.59;99736.16;5076309;28;19920;-72
2022/06/13 04:42:04;;;;;;;;;;;;;;;24.66;34.51;99740.22;5093603;28;20350;-72
2022/06/13 04:44:30;;;;;;;;;;;;;;;24.67;34.60;99736.38;5092736;28;20289;-72
2022/06/13 04:46:56;;;;;;;;;;;;;;;24.69;34.49;99734.16;5075309;28;19923;-71
2022/06/13 04:49:21;;;;;;;;;;;;;;;24.70;34.44;99731.13;5074626;28;19916;-71
2022/06/13 04:51:46;;;;;;;;;;;;;;;24.74;34.34;99725.88;5093473;28;19949;-71
2022/06/13 04:54:12;;;;;;;;;;;;;;;24.74;34.29;99728.59;5075518;28;19916;-71
2022/06/13 04:56:38;;;;;;;;;;;;;;;24.71;34.63;99737.41;5093750;28;19947;-71
2022/06/13 04:59:03;;;;;;;;;;;;;;;24.69;34.65;99734.16;5093810;28;19939;-70
2022/06/13 05:01:28;;;;;;;;;;;;;;;24.72;34.50;99739.84;5093914;28;20393;-70
2022/06/13 05:03:54;;;;;;;;;;;;;;;24.77;34.48;99738.94;5093668;28;20014;-71
2022/06/13 05:06:22;;;;;;;;;;;;;;;24.80;34.37;99735.63;5075887;28;20389;-71
2022/06/13 05:08:51;;;;;;;;;;;;;;;24.73;34.62;99737.91;5093421;28;19916;-71
2022/06/13 05:11:18;;;;;;;;;;;;;;;24.79;34.75;99738.66;5074940;28;20433;-71
2022/06/13 05:13:44;;;;;;;;;;;;;;;24.79;34.46;99742.19;5096650;28;19923;-73
2022/06/13 05:16:15;;;;;;;;;;;;;;;24.85;34.65;99746.47;5078441;28;19919;-72
2022/06/13 05:19:19;;;;;;;;;;;;;;;24.88;34.33;99743.13;5096224;28;20010;-72
2022/06/13 05:22:10;;;;;;;;;;;;;;;24.87;34.29;99752.44;5033607;28;19971;-72
2022/06/13 05:24:54;;;;;;;;;;;;;;;24.89;34.14;99750.22;5011166;28;19940;-72
2022/06/13 05:27:19;;;;;;;;;;;;;;;24.93;34.11;99753.97;5033711;28;20012;-72
2022/06/13 05:29:44;;;;;;;;;;;;;;;24.95;34.00;99752.88;5034106;28;20145;-73
2022/06/13 05:32:10;;;;;;;;;;;;;;;24.95;34.21;99753.66;5033563;28;19921;-71
2022/06/13 05:34:37;;;;;;;;;;;;;;;24.98;34.22;99763.22;5017239;28;19917;-70
2022/06/13 05:37:02;;;;;;;;;;;;;;;24.99;34.12;99754.72;5033727;28;20020;-71
2022/06/13 05:39:27;;;;;;;;;;;;;;;25.03;34.22;99749.47;5017122;28;20000;-71
2022/06/13 05:41:53;;;;;;;;;;;;;;;25.02;34.06;99753.28;5033409;28;20418;-71
2022/06/13 05:44:18;;;;;;;;;;;;;;;25.08;33.95;99746.63;5033506;28;19917;-72
2022/06/13 05:46:43;;;;;;;;;;;;;;;25.09;33.87;99757.28;5033490;28;20356;-71
2022/06/13 05:49:10;;;;;;;;;;;;;;;25.14;33.89;99756.34;5023618;28;20392;-71
2022/06/13 05:51:35;;;;;;;;;;;;;;;25.18;33.53;99748.34;5009038;28;19964;-72
2022/06/13 05:54:00;;;;;;;;;;;;;;;25.17;33.82;99749.50;5095672;28;20323;-71
2022/06/13 05:56:26;;;;;;;;;;;;;;;25.18;33.71;99746.47;5095304;28;19916;-71
2022/06/13 05:58:51;;;;;;;;;;;;;;;25.21;33.75;99756.78;5095323;28;19966;-72
2022/06/13 06:01:16;;;;;;;;;;;;;;;25.23;33.38;99749.09;5095716;28;19939;-71
2022/06/13 06:03:42;;;;;;;;;;;;;;;25.26;33.64;99756.72;5095020;28;19998;-71
2022/06/13 06:06:10;;;;;;;;;;;;;;;25.28;33.35;99746.31;5095566;28;19916;-72
2022/06/13 06:08:36;;;;;;;;;;;;;;;25.26;33.43;99751.25;5095054;28;19932;-72
2022/06/13 06:11:01;;;;;;;;;;;;;;;25.20;33.53;99755.16;5095350;28;19923;-71
2022/06/13 06:13:26;;;;;;;;;;;;;;;25.26;33.78;99742.22;5095465;28;20087;-72
2022/06/13 06:15:52;;;;;;;;;;;;;;;25.29;33.57;99736.16;5095094;28;19916;-72
2022/06/13 06:18:18;;;;;;;;;;;;;;;25.32;33.83;99740.22;5095030;28;19922;-72
2022/06/13 06:20:43;;;;;;;;;;;;;;;25.34;33.81;99747.00;5094737;28;19916;-71
2022/06/13 06:23:10;;;;;;;;;;;;;;;25.41;33.71;99744.69;5094532;28;19980;-71
2022/06/13 06:25:38;;;;;;;;;;;;;;;25.44;33.59;99743.25;5095339;28;19920;-72
2022/06/13 06:28:03;;;;;;;;;;;;;;;25.47;33.43;99738.03;5095455;28;19920;-72
2022/06/13 06:30:29;;;;;;;;;;;;;;;25.42;33.45;99740.84;5095009;28;19945;-72
2022/06/13 06:32:55;;;;;;;;;;;;;;;25.39;33.44;99735.97;5095140;28;19916;-71
2022/06/13 06:35:20;;;;;;;;;;;;;;;25.42;33.69;99740.03;5076590;28;19935;-70
2022/06/13 06:37:46;;;;;;;;;;;;;;;25.43;33.31;99736.19;5095428;28;19916;-73
2022/06/13 06:40:11;;;;;;;;;;;;;;;25.41;33.52;99732.94;5076766;28;20366;-71
2022/06/13 06:42:36;;;;;;;;;;;;;;;25.42;33.32;99734.56;5077319;28;19920;-72
2022/06/13 06:45:02;;;;;;;;;;;;;;;25.51;33.06;99721.81;5094316;28;20244;-73
2022/06/13 06:47:27;;;;;;;;;;;;;;;25.51;33.17;99726.44;5095430;28;19981;-72
2022/06/13 06:49:52;;;;;;;;;;;;;;;25.54;33.41;99726.66;5094859;28;20290;-72
2022/06/13 06:52:18;;;;;;;;;;;;;;;25.58;32.93;99726.88;5095048;28;19920;-73
2022/06/13 07:00:11;;;;;;;;;;;;;;;25.51;33.30;99721.81;5094533;28;20006;-75
2022/06/13 07:02:36;;;;;;;;;;;;;;;25.56;32.96;99720.88;5095211;28;20022;-73
2022/06/13 07:05:03;;;;;;;;;;;;;;;25.58;33.03;99715.94;5094158;28;19935;-72
2022/06/13 07:07:28;;;;;;;;;;;;;;;25.57;32.98;99712.38;5095030;28;19916;-73
2022/06/13 07:09:53;;;;;;;;;;;;;;;25.59;32.99;99710.13;5075119;28;20309;-73
2022/06/13 07:12:19;;;;;;;;;;;;;;;25.63;33.06;99716.63;5094042;28;19924;-73
2022/06/13 07:14:45;;;;;;;;;;;;;;;25.64;32.60;99715.50;5093511;28;19932;-72
2022/06/13 07:17:11;;;;;;;;;;;;;;;25.65;32.76;99719.88;5093484;28;20374;-73
2022/06/13 07:19:38;;;;;;;;;;;;;;;25.62;32.77;99728.69;5093905;28;19923;-73
2022/06/13 07:22:04;;;;;;;;;;;;;;;25.66;32.61;99712.47;5093512;28;20359;-73
2022/06/13 07:24:31;;;;;;;;;;;;;;;25.73;32.42;99715.59;5094101;28;19920;-72
2022/06/13 07:26:56;;;;;;;;;;;;;;;25.77;32.30;99721.28;5093478;28;19920;-73
2022/06/13 07:29:21;;;;;;;;;;;;;;;25.69;32.52;99714.59;5094328;28;19916;-73
2022/06/13 07:31:58;;;;;;;;;;;;;;;25.65;32.44;99719.88;5093854;28;20358;-73
2022/06/13 07:34:24;;;;;;;;;;;;;;;25.62;32.64;99709.53;5093068;28;20301;-72
2022/06/13 07:36:50;;;;;;;;;;;;;;;25.68;32.30;99712.97;5094003;28;19928;-72
2022/06/13 07:39:15;;;;;;;;;;;;;;;25.77;31.97;99715.81;5093625;28;20319;-73
2022/06/13 07:41:40;;;;;;;;;;;;;;;25.81;32.30;99714.09;5058636;28;19920;-73
2022/06/13 07:44:06;;;;;;;;;;;;;;;25.82;32.23;99710.25;5093356;28;19916;-73
2022/06/13 07:46:31;;;;;;;;;;;;;;;25.86;31.99;99716.72;5075696;28;19923;-73
2022/06/13 07:48:57;;;;;;;;;;;;;;;25.84;31.90;99713.47;5075571;28;19920;-74
2022/06/13 07:51:22;;;;;;;;;;;;;;;25.87;31.80;99718.31;5094547;28;19916;-73
2022/06/13 07:53:48;;;;;;;;;;;;;;;25.78;32.03;99718.22;5094641;28;19972;-74
2022/06/13 07:56:14;;;;;;;;;;;;;;;25.81;31.84;99719.56;5095778;28;19938;-73
2022/06/13 07:58:40;;;;;;;;;;;;;;;25.79;31.88;99716.31;5097192;28;19969;-74
2022/06/13 08:01:05;;;;;;;;;;;;;;;25.87;31.55;99715.56;5093753;28;19916;-73
2022/06/13 08:03:31;;;;;;;;;;;;;;;25.80;31.50;99715.19;5094218;28;19923;-73
2022/06/13 08:05:57;;;;;;;;;;;;;;;25.75;31.83;99713.38;5094343;28;19923;-74
2022/06/13 08:08:22;;;;;;;;;;;;;;;25.80;31.74;99710.53;5094699;28;19922;-73
2022/06/13 08:10:47;;;;;;;;;;;;;;;25.88;31.64;99714.47;5095549;28;20385;-74
2022/06/13 08:13:14;;;;;;;;;;;;;;;25.86;31.42;99722.19;5094707;28;20275;-73
2022/06/13 08:15:39;;;;;;;;;;;;;;;25.82;31.39;99722.00;5093906;28;19924;-74
2022/06/13 08:18:04;;;;;;;;;;;;;;;25.79;31.35;99716.31;5076134;28;19916;-73
2022/06/13 08:20:30;;;;;;;;;;;;;;;25.81;31.37;99714.88;5093838;28;20327;-73
2022/06/13 08:22:58;;;;;;;;;;;;;;;25.85;31.03;99712.34;5094277;28;19916;-73
2022/06/13 08:25:27;;;;;;;;;;;;;;;25.85;31.05;99710.44;5079710;28;19916;-73
2022/06/13 08:27:53;;;;;;;;;;;;;;;25.88;31.15;99711.72;5098121;28;19927;-72
2022/06/13 08:30:19;;;;;;;;;;;;;;;25.84;31.09;99713.47;5094274;28;19916;-73
2022/06/13 08:32:44;;;;;;;;;;;;;;;25.89;30.71;99715.28;5075967;28;19995;-73
2022/06/13 08:35:09;;;;;;;;;;;;;;;25.90;30.87;99711.44;5094026;28;19927;-72
2022/06/13 08:37:35;;;;;;;;;;;;;;;25.89;30.67;99710.63;5093904;28;19916;-73
2022/06/13 08:40:00;;;;;;;;;;;;;;;25.91;30.68;99708.41;5093246;28;19969;-73
2022/06/13 08:42:32;;;;;;;;;;;;;;;25.90;30.92;99712.22;5093526;28;19917;-73
2022/06/13 08:45:07;;;;;;;;;;;;;;;25.88;30.59;99700.00;5093561;28;19979;-72
2022/06/13 08:47:51;;;;;;;;;;;;;;;25.88;30.55;99700.78;5078246;28;19916;-73
2022/06/13 08:50:20;;;;;;;;;;;;;;;25.92;30.78;99696.31;5097192;28;20013;-73
2022/06/13 08:52:51;;;;;;;;;;;;;;;25.92;30.70;99690.84;5098130;28;19916;-72
2022/06/13 08:55:22;;;;;;;;;;;;;;;25.91;30.42;99683.75;5096868;28;19923;-74
2022/06/13 08:57:53;;;;;;;;;;;;;;;25.97;30.51;99696.22;5078948;28;20338;-73
2022/06/13 09:00:19;;;;;;;;;;;;;;;25.96;30.37;99691.88;5078588;28;19920;-73
2022/06/13 09:02:53;;;;;;;;;;;;;;;25.86;30.16;99692.88;5079411;28;19922;-73
2022/06/13 09:05:21;;;;;;;;;;;;;;;25.88;30.65;99692.56;5079391;28;20162;-73
2022/06/13 09:07:53;;;;;;;;;;;;;;;25.98;30.16;99692.38;5097244;28;19995;-73
2022/06/13 09:10:26;;;;;;;;;;;;;;;26.02;30.06;99692.56;5079096;28;19928;-73
2022/06/13 09:13:02;;;;;;;;;;;;;;;26.04;30.08;99693.06;5096751;28;19995;-73
2022/06/13 09:15:31;;;;;;;;;;;;;;;25.98;30.09;99686.09;5096631;28;19916;-73
2022/06/13 09:17:59;;;;;;;;;;;;;;;26.00;30.24;99672.91;5078935;28;19961;-73
2022/06/13 09:20:26;;;;;;;;;;;;;;;26.04;30.21;99680.22;5096645;28;20006;-72
2022/06/13 09:22:54;;;;;;;;;;;;;;;26.09;30.14;99681.22;5097622;28;19984;-72
2022/06/13 09:25:23;;;;;;;;;;;;;;;26.05;30.15;99687.28;5079344;28;19927;-74
2022/06/13 09:28:23;;;;;;;;;;;;;;;26.12;30.06;99686.06;5096402;28;19927;-76
2022/06/13 09:30:49;;;;;;;;;;;;;;;25.94;30.23;99685.91;5034399;28;20331;-74
2022/06/13 09:33:22;;;;;;;;;;;;;;;26.02;30.15;99695.31;5018378;28;19921;-74
2022/06/13 09:35:51;;;;;;;;;;;;;;;26.09;30.06;99697.63;5034210;28;20063;-73
2022/06/13 09:38:21;;;;;;;;;;;;;;;26.07;29.89;99694.41;5034216;28;20131;-73
2022/06/13 09:40:49;;;;;;;;;;;;;;;26.07;30.06;99688.94;5017518;28;19955;-73
2022/06/13 09:43:29;;;;;;;;;;;;;;;26.08;29.73;99701.47;5033790;28;19917;-73
2022/06/13 09:45:56;;;;;;;;;;;;;;;26.03;29.77;99703.22;5033853;28;19917;-73
2022/06/13 09:48:21;;;;;;;;;;;;;;;26.08;29.71;99734.34;5033390;28;19923;-73
2022/06/13 09:50:48;;;;;;;;;;;;;;;26.07;29.86;99721.78;5033480;28;20011;-73
2022/06/13 09:53:28;;;;;;;;;;;;;;;26.06;29.83;99731.94;5034114;28;19971;-73
2022/06/13 09:55:53;;;;;;;;;;;;;;;26.11;30.16;99723.56;5017103;28;19917;-73
2022/06/13 09:58:19;;;;;;;;;;;;;;;26.13;30.41;99726.00;5032428;28;19943;-73
2022/06/13 10:00:47;;;;;;;;;;;;;;;26.04;31.31;99723.19;5033604;28;19921;-73
2022/06/13 10:03:21;;;;;;;;;;;;;;;26.06;31.27;99726.44;5033465;28;20136;-73
2022/06/13 10:05:48;;;;;;;;;;;;;;;26.05;31.26;99714.69;5072437;28;19920;-73
2022/06/13 10:08:25;;;;;;;;;;;;;;;26.02;31.58;99714.47;5077900;28;19931;-73
2022/06/13 10:11:03;;;;;;;;;;;;;;;25.99;31.75;99721.41;5096284;28;19920;-73
2022/06/13 10:13:31;;;;;;;;;;;;;;;26.03;32.26;99705.97;5077143;28;19922;-73
2022/06/13 10:15:56;;;;;;;;;;;;;;;26.10;32.59;99700.06;5095659;28;20008;-72
2022/06/13 10:18:22;;;;;;;;;;;;;;;26.12;32.98;99699.75;5095506;28;20322;-72
2022/06/13 10:21:13;;;;;;;;;;;;;;;26.17;32.50;99708.66;5096007;28;19962;-73
2022/06/13 10:23:41;;;;;;;;;;;;;;;26.19;32.51;99708.34;5033305;28;19921;-72
2022/06/13 10:26:25;;;;;;;;;;;;;;;26.19;33.01;99708.34;5032663;28;19921;-72
2022/06/13 10:28:57;;;;;;;;;;;;;;;26.19;32.75;99711.91;5032739;28;19921;-73
2022/06/13 10:31:32;;;;;;;;;;;;;;;26.17;33.09;99705.94;5032422;28;19925;-70
2022/06/13 10:34:15;;;;;;;;;;;;;;;26.18;33.29;99695.78;5032670;28;19917;-70
2022/06/13 10:36:59;;;;;;;;;;;;;;;26.22;33.48;99694.84;5032153;28;20312;-69
2022/06/13 10:39:24;;;;;;;;;;;;;;;25.89;33.86;99704.31;5032172;28;19917;-70
2022/06/13 10:41:52;;;;;;;;;;;;;;;26.04;34.02;99696.66;5031915;28;20290;-70
2022/06/13 10:44:18;;;;;;;;;;;;;;;26.12;34.00;99686.06;5031754;28;19955;-70
2022/06/13 10:46:48;;;;;;;;;;;;;;;26.15;33.89;99689.00;5031795;28;20005;-71
2022/06/13 10:49:16;;;;;;;;;;;;;;;26.09;33.98;99686.69;5014952;28;19917;-70
2022/06/13 10:51:41;;;;;;;;;;;;;;;26.10;33.98;99682.84;5031610;28;20012;-70
2022/06/13 10:54:13;;;;;;;;;;;;;;;26.16;33.99;99687.06;5015941;28;19951;-70
2022/06/13 10:56:43;;;;;;;;;;;;;;;26.25;33.91;99682.50;5031634;28;19943;-70
2022/06/13 10:59:20;;;;;;;;;;;;;;;26.36;33.79;99680.31;5015159;28;19967;-70
2022/06/13 11:01:51;;;;;;;;;;;;;;;26.28;33.64;99681.03;5094921;28;20282;-70
2022/06/13 11:04:17;;;;;;;;;;;;;;;26.23;33.56;99681.97;5078475;28;19920;-70
2022/06/13 11:06:47;;;;;;;;;;;;;;;26.28;33.32;99684.59;5096300;28;19927;-69
2022/06/13 11:09:36;;;;;;;;;;;;;;;26.38;33.24;99678.88;5095012;28;19916;-69
2022/06/13 11:12:02;;;;;;;;;;;;;;;26.31;33.31;99683.97;5094577;28;19916;-69
2022/06/13 11:14:33;;;;;;;;;;;;;;;26.35;32.92;99684.97;5076881;28;20018;-69
2022/06/13 11:22:40;;;;;;;;;;;;;;;26.33;32.87;99689.94;5094434;28;20298;-70
2022/06/13 11:25:21;;;;;;;;;;;;;;;26.27;32.67;99687.63;5078370;28;19970;-68
2022/06/13 11:27:47;;;;;;;;;;;;;;;26.31;32.77;99677.69;5093650;28;19920;-69
2022/06/13 11:30:36;;;;;;;;;;;;;;;26.25;32.53;99682.50;5075915;28;19916;-69
2022/06/13 11:33:08;;;;;;;;;;;;;;;26.17;32.60;99677.75;5083171;28;19922;-70
2022/06/13 11:35:39;;;;;;;;;;;;;;;26.16;32.69;99687.06;5093414;28;19951;-70
2022/06/13 11:38:16;;;;;;;;;;;;;;;26.13;32.42;99676.72;5094498;28;19943;-70
2022/06/13 11:40:42;;;;;;;;;;;;;;;26.11;32.48;99684.44;5093631;28;20432;-69
2022/06/13 11:43:18;;;;;;;;;;;;;;;26.08;32.55;99677.66;5093475;28;19920;-70
2022/06/13 11:45:43;;;;;;;;;;;;;;;26.09;32.30;99664.78;5093669;28;19924;-70
2022/06/13 11:48:11;;;;;;;;;;;;;;;26.15;32.29;99664.34;5075356;28;19981;-70
2022/06/13 11:50:36;;;;;;;;;;;;;;;26.17;31.72;99669.53;5060004;28;19965;-70
2022/06/13 11:56:03;;;;;;;;;;;;;;;26.15;31.38;99674.50;5012044;28;19964;-70
2022/06/13 11:58:30;;;;;;;;;;;;;;;26.08;31.37;99676.84;5011704;28;19918;-70
2022/06/13 12:01:14;;;;;;;;;;;;;;;26.01;31.23;99669.88;5011518;28;19953;-70
2022/06/13 12:03:41;;;;;;;;;;;;;;;25.96;31.55;99672.72;5011477;28;19953;-71
2022/06/13 12:06:08;;;;;;;;;;;;;;;25.92;31.45;99668.94;5011567;28;19925;-68
2022/06/13 12:08:34;;;;;;;;;;;;;;;25.88;31.63;99662.47;5011240;28;19917;-68
2022/06/13 12:11:02;;;;;;;;;;;;;;;25.99;30.97;99663.91;5011745;28;19932;-67
2022/06/13 12:13:28;;;;;;;;;;;;;;;25.97;31.28;99668.84;5012109;28;20013;-66
2022/06/13 12:16:00;;;;;;;;;;;;;;;25.84;31.40;99662.28;5011039;28;19940;-68
2022/06/13 12:18:31;;;;;;;;;;;;;;;25.97;31.25;99668.84;4995314;28;20303;-68
2022/06/13 12:21:11;;;;;;;;;;;;;;;25.92;31.34;99673.59;5011621;28;19917;-68
2022/06/13 12:23:42;;;;;;;;;;;;;;;26.06;31.01;99666.22;5015495;28;19940;-68
2022/06/13 12:26:13;;;;;;;;;;;;;;;25.91;30.83;99670.06;5019053;28;19921;-68
2022/06/13 12:28:53;;;;;;;;;;;;;;;25.90;30.71;99673.13;5035094;28;19917;-67
2022/06/13 12:31:18;;;;;;;;;;;;;;;25.85;31.00;99666.66;5059120;28;19927;-69
2022/06/13 12:34:02;;;;;;;;;;;;;;;25.91;30.42;99663.78;5077132;28;19916;-70
2022/06/13 12:36:33;;;;;;;;;;;;;;;25.91;30.53;99664.59;5077894;28;19924;-70
2022/06/13 12:39:14;;;;;;;;;;;;;;;25.84;30.50;99661.47;5077276;28;20010;-69
2022/06/13 12:41:42;;;;;;;;;;;;;;;25.92;30.31;99657.97;5076933;28;19947;-72
2022/06/13 12:44:07;;;;;;;;;;;;;;;25.75;30.90;99660.56;5077751;28;20288;-73
2022/06/13 12:46:51;;;;;;;;;;;;;;;25.96;30.12;99644.56;5077789;28;19970;-72
2022/06/13 12:49:35;;;;;;;;;;;;;;;25.77;30.49;99647.41;5077101;28;20016;-72
2022/06/13 12:52:04;;;;;;;;;;;;;;;25.81;30.30;99648.41;5077351;28;19923;-72
2022/06/13 12:54:30;;;;;;;;;;;;;;;25.88;30.14;99637.84;5077239;28;19928;-71
2022/06/13 12:56:59;;;;;;;;;;;;;;;25.68;30.13;99639.91;5076922;28;20279;-71
2022/06/13 12:59:36;;;;;;;;;;;;;;;25.77;30.23;99641.94;5077207;28;19927;-71
2022/06/13 13:02:20;;;;;;;;;;;;;;;25.91;29.72;99629.00;5076577;28;19927;-72
2022/06/13 13:04:50;;;;;;;;;;;;;;;25.99;29.70;99632.97;5076593;28;20019;-71
2022/06/13 13:07:26;;;;;;;;;;;;;;;25.90;29.38;99627.38;5059094;28;19920;-71
2022/06/13 13:09:58;;;;;;;;;;;;;;;25.89;29.32;99625.78;5059734;28;19916;-72
2022/06/13 13:12:49;;;;;;;;;;;;;;;25.92;29.28;99627.06;5076645;28;19916;-71
2022/06/13 13:15:17;;;;;;;;;;;;;;;25.92;29.19;99622.41;5073584;28;19924;-71
2022/06/13 13:17:45;;;;;;;;;;;;;;;25.91;29.27;99626.28;5076564;28;19916;-73